Time;durP1;ratioP1;P1;durP2;ratioP2;P2;SDS_P1;SDS_P2;PMS_P1;PMS_P2;Temp;Humidity;BMP_temperature;BMP_pressure;BME280_temperature;BME280_humidity;BME280_pressure;Samples;Min_cycle;Max_cycle;Signal;HPM_P1;HPM_P2
2023/07/20 00:01:24;;;;;;;1.67;1.25;;;;;;;25.97;42.65;101175.44;5034879;28;20454;-61
2023/07/20 00:03:54;;;;;;;2.88;1.02;;;;;;;25.93;42.48;101169.59;5051380;28;20037;-62
2023/07/20 00:06:27;;;;;;;3.55;1.23;;;;;;;25.92;42.56;101173.38;5035507;28;20036;-61
2023/07/20 00:08:53;;;;;;;;;;;;;;;25.90;42.74;101172.78;5053311;28;20076;-62
2023/07/20 00:11:19;;;;;;;1.65;1.08;;;;;;;25.88;42.86;101172.13;5052663;28;20276;-62
2023/07/20 00:13:44;;;;;;;1.98;1.10;;;;;;;25.88;42.08;101183.09;5051878;28;20040;-62
2023/07/20 00:16:09;;;;;;;2.58;1.75;;;;;;;25.85;42.84;101174.50;5051346;28;20677;-61
2023/07/20 00:18:35;;;;;;;5.50;1.50;;;;;;;25.81;42.54;101179.56;5051155;28;20408;-61
2023/07/20 00:21:01;;;;;;;1.70;0.98;;;;;;;25.78;42.68;101180.00;5051377;28;20033;-61
2023/07/20 00:23:26;;;;;;;2.45;1.58;;;;;;;25.72;43.12;101169.06;5052458;28;20029;-61
2023/07/20 00:25:52;;;;;;;1.40;1.30;;;;;;;25.68;42.94;101168.69;5051342;28;20078;-61
2023/07/20 00:28:17;;;;;;;1.83;1.00;;;;;;;25.64;42.95;101167.41;5052727;28;20040;-62
2023/07/20 00:30:43;;;;;;;3.97;1.70;;;;;;;25.61;43.15;101167.84;5051196;28;20507;-61
2023/07/20 00:33:12;;;;;;;2.22;1.52;;;;;;;25.59;43.36;101172.72;5051428;28;20037;-61
2023/07/20 00:35:38;;;;;;;2.80;1.80;;;;;;;25.55;43.47;101174.22;5052221;28;20033;-61
2023/07/20 00:38:04;;;;;;;4.35;1.50;;;;;;;25.52;43.32;101173.84;5051103;28;20048;-61
2023/07/20 00:40:36;;;;;;;1.48;1.15;;;;;;;25.49;43.85;101166.84;5051082;28;20037;-61
2023/07/20 00:43:01;;;;;;;3.88;1.73;;;;;;;25.43;43.60;101173.22;5052320;28;20033;-62
2023/07/20 00:45:27;;;;;;;2.75;1.10;;;;;;;25.38;43.69;101167.50;5052332;28;20094;-61
2023/07/20 00:47:52;;;;;;;5.10;1.77;;;;;;;25.33;43.71;101161.84;5054202;28;20083;-62
2023/07/20 00:50:17;;;;;;;6.13;2.50;;;;;;;25.32;43.69;101171.97;5038464;28;20065;-61
2023/07/20 00:52:43;;;;;;;2.28;1.48;;;;;;;25.29;44.01;101174.31;5054781;28;20029;-62
2023/07/20 00:55:09;;;;;;;3.17;1.60;;;;;;;25.27;43.99;101177.25;5054456;28;20041;-61
2023/07/20 00:57:35;;;;;;;6.97;1.70;;;;;;;25.25;44.26;101178.53;5054794;28;20044;-61
2023/07/20 01:00:01;;;;;;;3.25;1.80;;;;;;;25.22;44.04;101173.50;5055839;28;20037;-61
2023/07/20 01:02:28;;;;;;;2.53;1.77;;;;;;;25.20;44.53;101170.13;5055644;28;20113;-61
2023/07/20 01:04:53;;;;;;;4.65;1.92;;;;;;;25.15;44.59;101162.56;5054723;28;20400;-62
2023/07/20 01:07:28;;;;;;;5.93;1.52;;;;;;;25.16;44.71;101179.81;5055926;28;20025;-61
2023/07/20 01:10:12;;;;;;;3.55;1.38;;;;;;;25.11;44.57;101182.38;5038208;28;20087;-62
2023/07/20 01:12:42;;;;;;;4.78;1.58;;;;;;;25.13;44.24;101185.75;5054445;28;20125;-61
2023/07/20 01:15:08;;;;;;;2.55;1.80;;;;;;;25.09;44.41;101182.63;5029304;28;20115;-61
2023/07/20 01:17:34;;;;;;;5.68;1.95;;;;;;;25.08;44.64;101183.66;5054457;28;20128;-62
2023/07/20 01:20:00;;;;;;;3.28;1.77;;;;;;;25.08;44.31;101182.81;5055541;28;20040;-61
2023/07/20 01:22:28;;;;;;;4.32;2.13;;;;;;;25.05;44.70;101185.97;5055517;28;20033;-61
2023/07/20 01:25:24;;;;;;;5.28;2.40;;;;;;;25.01;44.97;101184.75;5053855;28;20033;-63
2023/07/20 01:28:08;;;;;;;3.92;1.85;;;;;;;24.98;44.94;101193.41;5037386;28;20140;-61
2023/07/20 01:30:39;;;;;;;4.03;1.35;;;;;;;24.95;45.05;101189.19;5056128;28;20451;-61
2023/07/20 01:33:05;;;;;;;3.60;1.50;;;;;;;24.95;45.01;101188.34;5055277;28;20037;-61
2023/07/20 01:35:32;;;;;;;3.63;1.80;;;;;;;24.96;44.71;101181.81;5053937;28;20036;-60
2023/07/20 01:37:58;;;;;;;5.07;1.80;;;;;;;24.96;45.15;101179.88;5053767;28;20075;-60
2023/07/20 01:40:25;;;;;;;4.45;1.95;;;;;;;24.97;45.11;101191.69;5053888;28;20501;-61
2023/07/20 01:42:51;;;;;;;4.50;1.75;;;;;;;24.94;45.17;101181.16;5055179;28;20127;-61
2023/07/20 01:45:18;;;;;;;7.63;2.25;;;;;;;24.95;44.91;101177.38;5055058;28;20037;-61
2023/07/20 01:47:43;;;;;;;3.97;1.73;;;;;;;24.94;45.33;101176.53;5055306;28;20036;-61
2023/07/20 01:50:09;;;;;;;3.47;1.70;;;;;;;24.94;44.82;101176.53;5053958;28;20106;-61
2023/07/20 01:52:34;;;;;;;3.92;1.63;;;;;;;24.94;45.16;101178.41;5053686;28;20041;-61
2023/07/20 01:55:00;;;;;;;3.75;1.60;;;;;;;24.90;44.84;101181.59;5053300;28;20056;-61
2023/07/20 01:57:25;;;;;;;7.10;2.55;;;;;;;24.92;45.30;101177.78;5054461;28;20068;-61
2023/07/20 01:59:50;;;;;;;9.82;2.17;;;;;;;24.90;44.86;101170.63;5052858;28;20106;-62
2023/07/20 02:02:16;;;;;;;5.15;1.83;;;;;;;24.90;45.20;101176.09;5054904;28;20083;-61
2023/07/20 02:04:42;;;;;;;4.03;2.20;;;;;;;24.92;45.20;101172.31;5054801;28;20400;-61
2023/07/20 02:07:07;;;;;;;6.18;1.92;;;;;;;24.89;45.22;101170.84;5037118;28;20040;-62
2023/07/20 02:09:32;;;;;;;3.15;1.45;;;;;;;24.85;45.05;101164.09;5036748;28;20067;-62
2023/07/20 02:11:58;;;;;;;6.28;1.80;;;;;;;24.81;45.57;101160.13;5054264;28;20400;-62
2023/07/20 02:14:23;;;;;;;3.88;1.73;;;;;;;24.76;45.23;101157.97;5054616;28;20112;-61
2023/07/20 02:16:57;;;;;;;8.50;2.13;;;;;;;24.72;45.29;101161.34;5053202;28;20045;-61
2023/07/20 02:19:26;;;;;;;4.65;2.33;;;;;;;24.67;45.38;101158.41;5053524;28;20039;-62
2023/07/20 02:21:51;;;;;;;4.18;2.00;;;;;;;24.60;45.44;101157.56;5053380;28;20039;-62
2023/07/20 02:24:18;;;;;;;4.38;2.13;;;;;;;24.57;45.47;101163.47;5052976;28;20120;-62
2023/07/20 02:26:43;;;;;;;2.03;1.40;;;;;;;24.52;45.93;101177.81;5036593;28;20030;-64
2023/07/20 02:29:11;;;;;;;3.05;1.77;;;;;;;24.48;45.54;101165.63;5053134;28;20040;-64
2023/07/20 02:31:37;;;;;;;4.50;1.60;;;;;;;24.46;45.49;101167.69;5053190;28;20496;-64
2023/07/20 02:34:03;;;;;;;1.92;1.30;;;;;;;24.42;45.49;101169.19;5036424;28;20041;-65
2023/07/20 02:36:28;;;;;;;5.53;1.88;;;;;;;24.39;45.82;101172.34;5036110;28;20048;-65
2023/07/20 02:38:54;;;;;;;4.97;1.75;;;;;;;24.40;45.74;101176.75;5036091;28;20032;-65
2023/07/20 02:41:20;;;;;;;3.92;2.08;;;;;;;24.40;45.78;101171.28;5036377;28;20037;-65
2023/07/20 02:43:45;;;;;;;3.92;1.90;;;;;;;24.39;45.95;101177.84;5036113;28;20035;-65
2023/07/20 02:46:11;;;;;;;5.18;1.60;;;;;;;24.38;46.16;101181.63;5036143;28;20029;-65
2023/07/20 02:48:36;;;;;;;4.82;1.73;;;;;;;24.37;45.31;101171.72;5036093;28;20037;-65
2023/07/20 02:51:01;;;;;;;7.45;2.70;;;;;;;24.35;45.66;101176.56;5035925;28;20036;-64
2023/07/20 02:53:27;;;;;;;4.45;2.22;;;;;;;24.35;45.37;101182.03;5052676;28;20056;-65
2023/07/20 02:55:52;;;;;;;10.73;2.50;;;;;;;24.34;45.86;101177.63;5035782;28;20412;-64
2023/07/20 02:58:17;;;;;;;5.55;2.15;;;;;;;24.33;45.38;101185.00;5053753;28;20128;-64
2023/07/20 03:00:43;;;;;;;3.83;1.52;;;;;;;24.33;45.90;101181.41;5052445;28;20044;-66
2023/07/20 03:03:09;;;;;;;8.68;2.30;;;;;;;24.33;45.76;101184.16;5035797;28;20125;-64
2023/07/20 03:05:37;;;;;;;3.85;1.63;;;;;;;24.32;45.97;101187.94;5052312;28;20467;-65
2023/07/20 03:08:03;;;;;;;4.47;2.10;;;;;;;24.31;45.61;101191.75;5019792;28;20037;-64
2023/07/20 03:10:28;;;;;;;6.10;2.60;;;;;;;24.28;46.02;101187.53;5053105;28;20037;-64
2023/07/20 03:12:54;;;;;;;5.07;2.10;;;;;;;24.30;45.69;101196.38;5036142;28;20468;-65
2023/07/20 03:15:19;;;;;;;3.22;1.70;;;;;;;24.30;46.33;101198.25;5035615;28;20032;-64
2023/07/20 03:17:45;;;;;;;6.65;2.05;;;;;;;24.27;46.03;101201.41;5046716;28;20520;-65
2023/07/20 03:20:12;;;;;;;4.95;1.77;;;;;;;24.27;45.55;101210.47;5040885;28;20051;-65
2023/07/20 03:22:38;;;;;;;6.35;1.95;;;;;;;24.28;45.78;101203.09;5015994;28;20120;-65
2023/07/20 03:25:05;;;;;;;9.77;2.85;;;;;;;24.27;46.38;101206.88;5030799;28;20063;-65
2023/07/20 03:27:30;;;;;;;4.82;1.83;;;;;;;24.29;45.93;101213.00;5032212;28;20029;-65
2023/07/20 03:29:55;;;;;;;3.75;1.80;;;;;;;24.28;46.09;101214.06;5033143;28;20493;-65
2023/07/20 03:32:21;;;;;;;5.00;2.97;;;;;;;24.28;45.78;101209.44;5015336;28;20462;-64
2023/07/20 03:34:46;;;;;;;3.67;1.67;;;;;;;24.28;45.35;101211.31;5026033;28;20124;-64
2023/07/20 03:37:13;;;;;;;2.95;1.70;;;;;;;24.28;46.04;101208.59;5031718;28;20517;-62
2023/07/20 03:39:39;;;;;;;4.30;2.83;;;;;;;24.29;46.47;101208.34;5015207;28;20520;-62
2023/07/20 03:42:04;;;;;;;5.65;2.10;;;;;;;24.31;45.60;101214.50;5005902;28;20069;-61
2023/07/20 03:44:30;;;;;;;7.68;2.28;;;;;;;24.31;46.23;101217.22;5031724;28;20029;-61
2023/07/20 03:46:55;;;;;;;5.68;2.08;;;;;;;24.34;45.72;101222.25;5015450;28;20116;-62
2023/07/20 03:49:21;;;;;;;2.72;1.80;;;;;;;24.35;46.65;101220.38;5015242;28;20029;-61
2023/07/20 03:51:46;;;;;;;4.63;1.80;;;;;;;24.36;46.60;101216.59;5015216;28;20033;-61
2023/07/20 03:54:11;;;;;;;7.28;2.08;;;;;;;24.37;46.61;101221.03;5031688;28;20435;-61
2023/07/20 03:56:37;;;;;;;4.43;1.67;;;;;;;24.37;46.61;101217.44;5031538;28;20057;-61
2023/07/20 03:59:03;;;;;;;5.03;2.15;;;;;;;24.39;46.41;101226.28;5031308;28;20048;-61
2023/07/20 04:01:28;;;;;;;2.70;1.40;;;;;;;24.38;46.23;101214.47;5031521;28;20036;-61
2023/07/20 04:03:54;;;;;;;6.45;2.28;;;;;;;24.39;46.03;101216.19;5014792;28;20670;-60
2023/07/20 04:06:19;;;;;;;5.57;2.10;;;;;;;24.43;46.11;101222.91;5032734;28;20037;-61
2023/07/20 04:08:47;;;;;;;6.38;2.63;;;;;;;24.46;46.32;101227.13;5015423;28;20091;-61
2023/07/20 04:11:12;;;;;;;2.85;1.77;;;;;;;24.47;45.83;101217.84;5015300;28;20041;-62
2023/07/20 04:13:38;;;;;;;4.00;1.67;;;;;;;24.49;46.16;101222.06;5032911;28;20029;-61
2023/07/20 04:16:03;;;;;;;4.38;2.17;;;;;;;24.50;46.05;101226.50;5031355;28;20041;-61
2023/07/20 04:18:29;;;;;;;6.95;2.15;;;;;;;24.51;46.39;101216.41;5014934;28;20034;-60
2023/07/20 04:20:54;;;;;;;4.22;1.80;;;;;;;24.51;46.05;101225.44;5031583;28;20402;-61
2023/07/20 04:23:20;;;;;;;2.80;1.95;;;;;;;24.55;45.86;101228.59;5036459;28;20495;-63
2023/07/20 04:25:45;;;;;;;7.55;2.78;;;;;;;24.56;46.12;101217.44;5051900;28;20079;-61
2023/07/20 04:28:11;;;;;;;7.80;1.98;;;;;;;24.55;46.03;101221.22;5056435;28;20036;-62
2023/07/20 04:30:37;;;;;;;4.88;2.10;;;;;;;24.57;46.28;101231.97;5038532;28;20041;-61
2023/07/20 04:33:03;;;;;;;4.38;2.78;;;;;;;24.56;46.17;101228.41;5055098;28;20032;-61
2023/07/20 04:35:54;;;;;;;4.72;2.08;;;;;;;24.59;46.17;101228.00;5054944;28;20033;-61
2023/07/20 04:38:20;;;;;;;6.53;2.30;;;;;;;24.60;46.62;101229.66;5054474;28;20468;-61
2023/07/20 04:40:50;;;;;;;4.82;2.50;;;;;;;24.61;46.20;101234.09;5055357;28;20033;-61
2023/07/20 04:43:16;;;;;;;3.63;1.90;;;;;;;24.63;46.01;101222.91;5038334;28;20405;-61
2023/07/20 04:45:41;;;;;;;3.28;1.63;;;;;;;24.67;46.52;101230.50;5055026;28;20110;-64
2023/07/20 04:48:11;;;;;;;4.38;2.22;;;;;;;24.70;46.39;101224.59;5056148;28;20431;-64
2023/07/20 04:50:37;;;;;;;5.63;2.10;;;;;;;24.72;46.33;101227.97;5055667;28;20530;-64
2023/07/20 04:53:02;;;;;;;12.80;3.30;;;;;;;24.76;46.34;101228.41;5057169;28;20087;-64
2023/07/20 04:55:28;;;;;;;4.85;2.70;;;;;;;24.78;45.86;101232.63;5056403;28;20036;-64
2023/07/20 04:57:53;;;;;;;10.38;3.13;;;;;;;24.78;46.30;101226.28;5056313;28;20048;-65
2023/07/20 05:00:19;;;;;;;5.93;2.50;;;;;;;24.84;46.11;101236.44;5055056;28;21387;-64
2023/07/20 05:02:47;;;;;;;8.73;3.35;;;;;;;24.84;46.42;101240.03;5055035;28;20028;-64
2023/07/20 05:05:12;;;;;;;6.97;2.65;;;;;;;24.84;46.42;101231.81;5054691;28;20493;-64
2023/07/20 05:07:38;;;;;;;4.53;3.35;;;;;;;24.86;46.13;101240.66;5055067;28;20040;-64
2023/07/20 05:10:04;;;;;;;8.43;2.40;;;;;;;24.86;46.19;101242.53;5055427;28;20033;-64
2023/07/20 05:12:29;;;;;;;10.90;3.45;;;;;;;24.89;45.72;101244.84;5055542;28;20029;-64
2023/07/20 05:14:56;;;;;;;7.63;2.97;;;;;;;24.93;46.43;101250.75;5054553;28;20040;-64
2023/07/20 05:17:21;;;;;;;9.82;3.00;;;;;;;24.93;46.10;101242.53;5053787;28;20068;-63
2023/07/20 05:19:46;;;;;;;6.22;2.92;;;;;;;24.99;46.31;101239.78;5056305;28;20052;-63
2023/07/20 05:22:13;;;;;;;5.30;2.63;;;;;;;25.07;46.04;101252.44;5056010;28;20025;-63
2023/07/20 05:24:41;;;;;;;4.70;2.53;;;;;;;25.17;45.97;101252.81;5054428;28;20487;-64
2023/07/20 05:27:06;;;;;;;8.48;4.25;;;;;;;25.24;46.23;101248.16;5054453;28;20033;-64
2023/07/20 05:29:33;;;;;;;9.85;4.82;;;;;;;25.30;45.79;101247.31;5054547;28;20052;-64
2023/07/20 05:31:59;;;;;;;10.38;4.35;;;;;;;25.32;46.12;101245.22;5037910;28;20032;-63
2023/07/20 05:34:24;;;;;;;11.00;5.15;;;;;;;25.35;45.97;101245.59;5054200;28;20029;-64
2023/07/20 05:36:49;;;;;;;7.85;4.80;;;;;;;25.42;46.09;101245.59;5036930;28;20103;-64
2023/07/20 05:39:17;;;;;;;9.88;4.60;;;;;;;25.52;45.92;101248.72;5053956;28;20086;-64
2023/07/20 05:41:42;;;;;;;15.43;4.78;;;;;;;25.61;45.68;101249.34;5053889;28;20107;-63
2023/07/20 05:44:08;;;;;;;12.35;4.70;;;;;;;25.68;45.24;101248.28;5055379;28;20060;-64
2023/07/20 05:46:33;;;;;;;9.70;5.53;;;;;;;25.74;45.68;101244.63;5033458;28;20128;-64
2023/07/20 05:48:58;;;;;;;9.80;5.43;;;;;;;25.81;45.45;101252.84;5035120;28;20030;-63
2023/07/20 05:51:24;;;;;;;6.93;5.32;;;;;;;25.88;45.76;101257.25;5033757;28;20044;-65
2023/07/20 05:53:49;;;;;;;13.68;5.38;;;;;;;25.88;45.10;101267.41;5033576;28;20400;-64
2023/07/20 05:56:15;;;;;;;9.40;4.80;;;;;;;25.90;45.06;101254.28;5033460;28;20033;-61
2023/07/20 05:58:40;;;;;;;8.00;5.43;;;;;;;25.92;45.52;101258.50;5040372;28;20593;-64
2023/07/20 06:01:06;;;;;;;8.20;4.68;;;;;;;25.89;44.59;101253.44;5036676;28;20037;-62
2023/07/20 06:03:33;;;;;;;7.88;4.70;;;;;;;25.87;45.47;101258.31;5037051;28;20048;-62
2023/07/20 06:06:02;;;;;;;7.90;4.95;;;;;;;25.86;45.44;101259.38;5037005;28;20029;-62
2023/07/20 06:08:31;;;;;;;9.98;5.45;;;;;;;25.85;45.00;101260.41;5053283;28;20033;-62
2023/07/20 06:10:56;;;;;;;9.70;5.65;;;;;;;25.86;45.36;101259.38;5053291;28;20578;-61
2023/07/20 06:13:22;;;;;;;10.60;5.35;;;;;;;25.95;45.46;101271.78;5053243;28;20036;-62
2023/07/20 06:15:48;;;;;;;7.88;4.93;;;;;;;26.01;44.82;101279.16;5036502;28;20026;-61
2023/07/20 06:18:13;;;;;;;10.73;5.75;;;;;;;26.11;44.98;101269.56;5036641;28;20552;-61
2023/07/20 06:20:39;;;;;;;11.85;6.32;;;;;;;26.23;44.71;101270.59;5053563;28;20033;-61
2023/07/20 06:23:04;;;;;;;11.90;6.40;;;;;;;26.39;44.89;101270.91;5037382;28;20029;-62
2023/07/20 06:25:30;;;;;;;8.23;5.72;;;;;;;26.80;44.37;101255.84;5054446;28;20025;-61
2023/07/20 06:27:55;;;;;;;7.68;5.13;;;;;;;26.79;43.82;101266.00;5055796;28;20040;-61
2023/07/20 06:30:21;;;;;;;7.20;5.00;;;;;;;26.84;44.45;101263.41;5054627;28;20454;-61
2023/07/20 06:32:47;;;;;;;7.05;5.05;;;;;;;26.84;43.70;101260.66;5037407;28;20047;-62
2023/07/20 06:35:12;;;;;;;7.60;5.15;;;;;;;26.84;44.05;101263.41;5036417;28;20024;-61
2023/07/20 06:37:38;;;;;;;9.05;4.95;;;;;;;27.13;43.89;101256.38;5053023;28;20398;-61
2023/07/20 06:40:04;;;;;;;7.43;4.68;;;;;;;27.41;43.12;101262.22;5052757;28;20037;-62
2023/07/20 06:42:29;;;;;;;6.10;4.53;;;;;;;27.70;43.03;101257.84;5056205;28;20041;-62
2023/07/20 06:44:56;;;;;;;7.45;3.95;;;;;;;28.11;42.79;101257.94;5057264;28;20033;-61
2023/07/20 06:47:21;;;;;;;5.40;3.60;;;;;;;28.48;41.68;101252.31;5052881;28;20036;-62
2023/07/20 06:49:47;;;;;;;4.95;4.05;;;;;;;28.84;41.94;101263.19;5052495;28;20037;-61
2023/07/20 06:52:12;;;;;;;9.80;4.18;;;;;;;29.23;41.08;101270.78;5052760;28;20381;-61
2023/07/20 06:54:38;;;;;;;5.82;3.85;;;;;;;29.45;40.32;101263.53;5035902;28;20044;-62
2023/07/20 06:57:05;;;;;;;6.45;3.67;;;;;;;29.73;40.35;101259.19;5053524;28;20087;-62
2023/07/20 06:59:30;;;;;;;8.27;3.60;;;;;;;29.80;40.23;101265.44;5052308;28;20522;-62
2023/07/20 07:01:55;;;;;;;5.35;2.90;;;;;;;29.67;40.51;101269.28;5053470;28;20111;-62
2023/07/20 07:04:21;;;;;;;3.53;2.67;;;;;;;29.57;40.43;101274.56;5052188;28;20036;-61
2023/07/20 07:06:46;;;;;;;4.38;2.65;;;;;;;29.54;40.58;101277.81;5053761;28;20053;-61
2023/07/20 07:09:12;;;;;;;4.13;3.05;;;;;;;29.52;39.65;101270.88;5053690;28;20048;-61
2023/07/20 07:11:37;;;;;;;8.20;3.50;;;;;;;29.48;40.46;101280.75;5053562;28;20527;-61
2023/07/20 07:14:02;;;;;;;5.97;3.67;;;;;;;29.63;39.99;101275.53;5052457;28;20111;-61
2023/07/20 07:16:28;;;;;;;8.52;3.58;;;;;;;29.36;39.85;101281.59;5052257;28;20399;-62
2023/07/20 07:18:53;;;;;;;6.15;3.13;;;;;;;29.22;39.85;101284.84;5053561;28;20029;-62
2023/07/20 07:21:19;;;;;;;4.22;3.08;;;;;;;29.09;40.45;101274.81;5051959;28;20120;-61
2023/07/20 07:23:45;;;;;;;4.32;3.22;;;;;;;29.03;40.46;101286.84;5052168;28;20396;-61
2023/07/20 07:26:10;;;;;;;4.80;3.65;;;;;;;29.51;38.65;101286.59;5052136;28;20021;-61
2023/07/20 07:28:36;;;;;;;6.95;4.07;;;;;;;29.94;38.94;101283.41;5052144;28;20036;-61
2023/07/20 07:31:04;;;;;;;4.07;2.78;;;;;;;30.35;38.27;101268.44;5051979;28;20037;-61
2023/07/20 07:33:30;;;;;;;6.22;3.13;;;;;;;30.75;37.77;101274.72;5053213;28;20095;-62
2023/07/20 07:35:55;;;;;;;4.22;2.78;;;;;;;31.20;37.09;101282.94;5051672;28;20033;-62
2023/07/20 07:38:20;;;;;;;5.97;2.97;;;;;;;31.02;37.67;101281.28;5035046;28;20516;-62
2023/07/20 07:40:46;;;;;;;3.88;2.95;;;;;;;30.87;38.03;101277.41;5035239;28;20029;-62
2023/07/20 07:43:13;;;;;;;5.68;2.53;;;;;;;30.81;37.88;101287.56;5035180;28;20044;-62
2023/07/20 07:45:38;;;;;;;5.05;2.17;;;;;;;30.69;37.74;101288.69;5051866;28;20047;-62
2023/07/20 07:48:04;;;;;;;4.53;2.53;;;;;;;30.55;37.97;101285.44;5035305;28;20488;-62
2023/07/20 07:50:30;;;;;;;3.65;2.30;;;;;;;30.43;38.23;101285.47;5051991;28;20028;-62
2023/07/20 07:52:55;;;;;;;4.40;2.90;;;;;;;30.29;37.86;101295.13;5052136;28;20062;-63
2023/07/20 07:55:21;;;;;;;3.13;2.10;;;;;;;30.14;38.10;101282.97;5034687;28;20171;-62
2023/07/20 07:57:47;;;;;;;3.65;2.25;;;;;;;30.01;38.25;101298.75;5052253;28;20492;-62
2023/07/20 08:00:14;;;;;;;3.10;2.35;;;;;;;29.83;38.10;101304.47;5052525;28;20143;-62
2023/07/20 08:02:43;;;;;;;6.10;2.15;;;;;;;29.66;37.81;101308.19;5035090;28;20037;-62
2023/07/20 08:05:09;;;;;;;2.25;1.92;;;;;;;29.55;37.74;101311.81;5048572;28;20029;-61
2023/07/20 08:07:34;;;;;;;5.93;2.10;;;;;;;29.47;37.84;101314.94;5053091;28;20514;-61
2023/07/20 08:10:00;;;;;;;4.25;1.95;;;;;;;29.41;37.87;101312.06;5051439;28;20116;-61
2023/07/20 08:12:26;;;;;;;2.92;2.25;;;;;;;29.42;37.64;101307.41;5049201;28;20040;-61
2023/07/20 08:14:52;;;;;;;3.05;2.10;;;;;;;30.12;37.32;101307.25;5031812;28;20505;-61
2023/07/20 08:17:17;;;;;;;3.75;2.20;;;;;;;30.66;36.35;101297.50;5015918;28;20123;-62
2023/07/20 08:19:44;;;;;;;2.95;1.38;;;;;;;31.20;36.46;101302.31;5035527;28;20405;-63
2023/07/20 08:22:09;;;;;;;2.15;1.70;;;;;;;31.73;35.66;101298.09;5031872;28;20086;-62
2023/07/20 08:24:34;;;;;;;3.25;2.05;;;;;;;32.03;35.69;101291.03;5032927;28;20108;-62
2023/07/20 08:27:00;;;;;;;3.45;1.77;;;;;;;32.10;35.50;101288.06;5031776;28;20037;-62
2023/07/20 08:29:26;;;;;;;1.83;1.63;;;;;;;31.80;35.51;101287.69;5032983;28;20123;-62
2023/07/20 08:31:51;;;;;;;3.72;1.30;;;;;;;32.25;35.28;101296.53;5031469;28;20120;-61
2023/07/20 08:34:16;;;;;;;2.55;1.42;;;;;;;32.51;34.58;101289.31;5032640;28;20057;-62
2023/07/20 08:36:42;;;;;;;3.47;1.85;;;;;;;32.89;34.22;101289.13;5032569;28;20120;-62
2023/07/20 08:39:08;;;;;;;1.45;1.35;;;;;;;33.16;34.46;101283.53;5031374;28;20571;-62
2023/07/20 08:41:34;;;;;;;4.55;1.25;;;;;;;33.45;34.03;101293.16;5014920;28;20033;-62
2023/07/20 08:44:00;;;;;;;1.52;1.42;;;;;;;33.76;32.48;101302.53;5036737;28;20082;-62
2023/07/20 08:46:26;;;;;;;1.98;1.13;;;;;;;34.09;32.71;101290.19;5034005;28;20038;-61
2023/07/20 08:48:52;;;;;;;1.15;0.80;;;;;;;34.39;32.71;101295.81;5032337;28;20040;-61
2023/07/20 08:51:19;;;;;;;2.80;1.08;;;;;;;34.69;31.21;101281.13;5014972;28;20401;-61
2023/07/20 08:53:45;;;;;;;2.13;0.82;;;;;;;34.90;31.40;101283.59;5031249;28;20076;-62
2023/07/20 08:56:11;;;;;;;1.70;0.90;;;;;;;35.09;31.23;101290.31;5014715;28;20113;-61
2023/07/20 08:58:37;;;;;;;4.65;1.00;;;;;;;35.30;30.99;101284.69;5031285;28;20050;-61
2023/07/20 09:01:03;;;;;;;1.85;0.88;;;;;;;34.82;31.26;101291.69;5031396;28;20505;-62
2023/07/20 09:03:28;;;;;;;5.93;1.15;;;;;;;34.35;32.28;101298.31;5032503;28;20112;-61
2023/07/20 09:05:53;;;;;;;1.20;1.10;;;;;;;34.00;32.14;101294.56;5031471;28;20038;-61
2023/07/20 09:08:19;;;;;;;1.10;0.90;;;;;;;33.72;31.90;101293.91;5016747;28;20029;-62
2023/07/20 09:10:45;;;;;;;2.58;0.80;;;;;;;33.79;31.90;101299.19;5036119;28;20511;-62
2023/07/20 09:13:14;;;;;;;1.20;0.95;;;;;;;34.09;31.35;101296.56;5034808;28;20434;-62
2023/07/20 09:15:45;;;;;;;1.08;0.93;;;;;;;33.79;30.91;101285.31;5034474;28;20382;-62
2023/07/20 09:18:11;;;;;;;1.08;0.98;;;;;;;34.38;31.03;101286.63;5035853;28;20041;-61
2023/07/20 09:20:36;;;;;;;1.40;0.85;;;;;;;34.84;30.68;101284.72;5035929;28;20516;-61
2023/07/20 09:23:05;;;;;;;0.95;0.85;;;;;;;35.17;30.45;101276.94;5034942;28;20037;-62
2023/07/20 09:25:31;;;;;;;2.78;1.02;;;;;;;35.32;29.88;101271.31;5034850;28;20116;-61
2023/07/20 09:27:57;;;;;;;1.40;1.08;;;;;;;35.53;29.76;101273.78;5034379;28;20137;-62
2023/07/20 09:30:25;;;;;;;4.32;0.70;;;;;;;35.14;29.91;101264.41;5035609;28;20036;-62
2023/07/20 09:32:51;;;;;;;0.63;0.50;;;;;;;34.70;30.36;101269.72;5034373;28;20034;-61
2023/07/20 09:35:20;;;;;;;0.77;0.70;;;;;;;34.49;30.22;101282.75;5035538;28;20087;-62
2023/07/20 09:37:59;;;;;;;1.77;0.77;;;;;;;34.41;30.05;101279.66;5034237;28;20136;-62
2023/07/20 09:40:25;;;;;;;1.38;0.60;;;;;;;35.06;29.20;101279.75;5017337;28;20079;-62
2023/07/20 09:42:52;;;;;;;1.33;0.60;;;;;;;35.30;29.40;101276.34;5034454;28;20022;-62
2023/07/20 09:45:18;;;;;;;1.65;0.57;;;;;;;35.04;29.78;101281.94;5033973;28;20543;-61
2023/07/20 09:47:43;;;;;;;2.08;0.70;;;;;;;34.67;29.82;101275.84;5035400;28;20029;-62
2023/07/20 09:50:10;;;;;;;0.85;0.68;;;;;;;34.41;29.32;101279.66;5053760;28;20029;-62
2023/07/20 09:52:44;;;;;;;1.45;0.50;;;;;;;34.04;30.16;101276.22;5055303;28;20024;-62
2023/07/20 09:55:11;;;;;;;1.60;0.60;;;;;;;33.71;29.97;101283.88;5054986;28;20041;-61
2023/07/20 09:57:37;;;;;;;0.93;0.60;;;;;;;34.02;30.49;101278.44;5053914;28;20397;-62
2023/07/20 10:00:10;;;;;;;1.50;0.90;;;;;;;34.86;29.29;101274.16;5020737;28;20037;-61
2023/07/20 10:02:43;;;;;;;2.80;2.25;;;;;;;35.58;28.44;101265.44;5053767;28;20056;-62
2023/07/20 10:05:10;;;;;;;2.03;1.92;;;;;;;36.40;28.31;101265.84;5053595;28;20500;-62
2023/07/20 10:07:36;;;;;;;4.43;4.13;;;;;;;37.32;27.78;101268.41;5053662;28;20063;-62
2023/07/20 10:10:03;;;;;;;2.65;2.55;;;;;;;38.52;26.41;101260.69;5037023;28;20036;-62
2023/07/20 10:12:29;;;;;;;1.45;0.70;;;;;;;38.26;26.58;101263.84;5053614;28;20037;-62
2023/07/20 10:15:08;;;;;;;1.05;0.73;;;;;;;37.77;26.34;101269.84;5053355;28;20041;-62
2023/07/20 10:17:36;;;;;;;1.00;0.93;;;;;;;38.73;25.74;101259.19;5036792;28;20095;-63
2023/07/20 10:20:03;;;;;;;1.73;1.60;;;;;;;37.89;26.97;101261.88;5052518;28;20065;-62
2023/07/20 10:22:31;;;;;;;1.23;0.95;;;;;;;37.13;27.54;101258.28;5053524;28;20116;-61
2023/07/20 10:24:58;;;;;;;1.92;1.25;;;;;;;36.50;27.51;101266.63;5053075;28;20419;-62
2023/07/20 10:27:24;;;;;;;1.45;1.30;;;;;;;37.05;27.44;101254.16;5052976;28;20448;-61
2023/07/20 10:29:51;;;;;;;3.63;1.25;;;;;;;37.50;26.51;101257.59;5053228;28;20033;-61
2023/07/20 10:32:16;;;;;;;2.42;1.30;;;;;;;37.85;26.31;101254.34;5036175;28;20090;-63
2023/07/20 10:34:42;;;;;;;4.22;1.50;;;;;;;37.77;26.84;101249.44;5054011;28;20033;-63
2023/07/20 10:37:08;;;;;;;1.50;1.30;;;;;;;38.24;26.39;101257.75;5052708;28;20059;-62
2023/07/20 10:39:34;;;;;;;4.82;2.00;;;;;;;38.74;26.29;101252.47;5054241;28;20037;-61
2023/07/20 10:42:01;;;;;;;2.30;2.10;;;;;;;39.11;25.66;101232.75;5054346;28;20037;-62
2023/07/20 10:44:27;;;;;;;2.10;0.98;;;;;;;38.61;26.18;101239.25;5052766;28;20036;-63
2023/07/20 10:46:59;;;;;;;1.30;1.20;;;;;;;38.37;26.38;101237.41;5052914;28;20036;-62
2023/07/20 10:49:26;;;;;;;2.13;1.38;;;;;;;38.89;24.95;101229.81;5052737;28;20029;-63
2023/07/20 10:51:58;;;;;;;2.90;2.08;;;;;;;39.22;24.43;101234.25;5036391;28;20033;-63
2023/07/20 10:54:23;;;;;;;1.63;1.52;;;;;;;39.56;25.01;101229.03;5052666;28;20390;-62
2023/07/20 10:56:48;;;;;;;1.65;1.55;;;;;;;39.96;24.02;101226.50;5053600;28;20048;-62
2023/07/20 10:59:23;;;;;;;2.60;1.90;;;;;;;39.86;23.75;101221.13;5052617;28;20056;-61
2023/07/20 11:01:51;;;;;;;2.50;1.60;;;;;;;40.34;23.75;101219.47;5053942;28;20032;-61
2023/07/20 11:04:20;;;;;;;1.25;1.10;;;;;;;40.49;23.90;101209.84;5052508;28;20037;-63
2023/07/20 11:06:46;;;;;;;1.60;1.50;;;;;;;40.85;23.21;101221.78;5053686;28;20033;-62
2023/07/20 11:09:16;;;;;;;2.60;1.40;;;;;;;41.18;23.09;101219.53;5052366;28;20041;-62
2023/07/20 11:11:54;;;;;;;1.80;1.70;;;;;;;41.33;22.75;101226.72;5054015;28;20052;-62
2023/07/20 11:14:22;;;;;;;1.30;1.20;;;;;;;41.48;22.71;101223.47;5052276;28;20179;-62
2023/07/20 11:16:48;;;;;;;0.88;0.88;;;;;;;41.66;22.58;101219.53;5035551;28;20041;-63
2023/07/20 11:19:17;;;;;;;1.63;1.20;;;;;;;41.71;22.26;101228.63;5052275;28;20059;-62
2023/07/20 11:21:50;;;;;;;2.50;1.13;;;;;;;41.70;22.13;101215.75;5053345;28;20056;-61